Time;durP1;ratioP1;P1;durP2;ratioP2;P2;SDS_P1;SDS_P2;PMS_P1;PMS_P2;Temp;Humidity;BMP_temperature;BMP_pressure;BME280_temperature;BME280_humidity;BME280_pressure;Samples;Min_cycle;Max_cycle;Signal;HPM_P1;HPM_P2
2021/08/01 00:01:03;;;;;;;7.30;3.22;;;18.60;99.80;;;;;;5056534;28;20139;-80
2021/08/01 00:03:31;;;;;;;7.35;3.38;;;18.60;99.90;;;;;;5056025;28;20141;-79
2021/08/01 00:05:58;;;;;;;5.85;3.38;;;18.50;99.90;;;;;;5056312;28;20045;-78
2021/08/01 00:08:26;;;;;;;6.20;3.03;;;18.50;99.90;;;;;;5056157;28;20132;-79
2021/08/01 00:10:57;;;;;;;6.00;3.17;;;18.40;99.90;;;;;;5043109;28;20081;-78
2021/08/01 00:13:25;;;;;;;5.13;2.85;;;18.40;99.90;;;;;;5037846;28;20056;-79
2021/08/01 00:15:52;;;;;;;6.68;3.45;;;18.40;99.90;;;;;;5036464;28;20052;-78
2021/08/01 00:18:19;;;;;;;5.72;3.00;;;18.40;99.90;;;;;;5037032;28;20080;-78
2021/08/01 00:20:46;;;;;;;5.20;2.97;;;18.30;99.90;;;;;;5036357;28;20124;-77
2021/08/01 00:23:13;;;;;;;7.30;3.28;;;18.30;99.90;;;;;;5043230;28;20128;-78
2021/08/01 00:25:42;;;;;;;4.68;2.50;;;18.30;99.90;;;;;;5047251;28;20105;-80
2021/08/01 00:28:09;;;;;;;5.75;2.65;;;18.30;99.90;;;;;;5039036;28;20149;-79
2021/08/01 00:30:36;;;;;;;5.30;2.78;;;18.30;99.90;;;;;;5035820;28;20475;-78
2021/08/01 00:33:03;;;;;;;5.53;2.70;;;18.40;99.90;;;;;;5035703;28;20128;-80
2021/08/01 00:35:30;;;;;;;6.82;3.13;;;18.40;99.90;;;;;;5035695;28;20462;-79
2021/08/01 00:37:57;;;;;;;6.28;3.30;;;18.40;99.90;;;;;;5036970;28;20136;-78
2021/08/01 00:40:24;;;;;;;6.68;2.85;;;18.40;99.90;;;;;;5047239;28;20077;-77
2021/08/01 00:42:53;;;;;;;6.10;3.08;;;18.30;99.90;;;;;;5039496;28;20128;-80
2021/08/01 00:45:20;;;;;;;6.82;3.20;;;18.20;99.90;;;;;;5040791;28;20047;-78
2021/08/01 00:47:47;;;;;;;5.43;3.15;;;18.20;99.90;;;;;;5055103;28;20040;-78
2021/08/01 00:50:16;;;;;;;7.47;3.38;;;18.10;99.90;;;;;;5055398;28;20061;-79
2021/08/01 00:52:47;;;;;;;7.65;3.25;;;17.90;99.90;;;;;;5055018;28;20051;-79
2021/08/01 00:55:14;;;;;;;8.93;3.35;;;17.90;99.90;;;;;;5055934;28;20041;-80
2021/08/01 00:57:41;;;;;;;8.32;3.30;;;17.80;99.90;;;;;;5055570;28;20455;-79
2021/08/01 01:00:17;;;;;;;7.32;3.88;;;17.80;99.90;;;;;;5055506;28;20127;-80
2021/08/01 01:02:49;;;;;;;6.97;3.17;;;17.70;99.90;;;;;;5055706;28;20064;-77
2021/08/01 01:05:25;;;;;;;6.88;3.17;;;17.60;99.90;;;;;;5055412;28;20052;-79
2021/08/01 01:08:02;;;;;;;6.85;2.92;;;17.60;99.90;;;;;;5055247;28;20170;-78
2021/08/01 01:10:37;;;;;;;7.82;3.42;;;17.50;99.90;;;;;;5045509;28;20079;-78
2021/08/01 01:13:11;;;;;;;7.05;3.10;;;17.40;99.90;;;;;;5034888;28;20514;-78
2021/08/01 01:15:46;;;;;;;5.63;3.08;;;17.40;99.90;;;;;;5035038;28;20072;-80
2021/08/01 01:18:18;;;;;;;6.05;2.97;;;17.30;99.90;;;;;;5034966;28;20465;-79
2021/08/01 01:21:23;;;;;;;7.65;2.88;;;17.30;99.90;;;;;;5035028;28;20152;-80
2021/08/01 01:23:58;;;;;;;5.35;2.80;;;17.30;99.90;;;;;;5034873;28;20053;-79
2021/08/01 01:26:35;;;;;;;4.20;2.53;;;17.30;99.90;;;;;;5042784;28;20056;-77
2021/08/01 01:29:16;;;;;;;5.85;3.03;;;17.30;99.90;;;;;;5038361;28;20064;-79
2021/08/01 01:31:58;;;;;;;11.02;3.28;;;17.30;99.90;;;;;;5034352;28;20485;-79
2021/08/01 01:34:42;;;;;;;5.65;2.72;;;17.20;99.90;;;;;;5033393;28;20053;-78
2021/08/01 01:37:14;;;;;;;6.47;2.67;;;17.20;99.90;;;;;;5034337;28;20476;-80
2021/08/01 01:39:43;;;;;;;4.65;2.33;;;17.30;99.90;;;;;;5034321;28;20555;-78
2021/08/01 01:42:14;;;;;;;4.63;2.10;;;17.30;99.90;;;;;;5034161;28;20124;-80
2021/08/01 01:44:44;;;;;;;6.65;2.40;;;17.40;99.90;;;;;;5034516;28;20128;-80
2021/08/01 01:47:12;;;;;;;4.68;2.40;;;17.40;99.90;;;;;;5034271;28;20041;-80
2021/08/01 01:49:42;;;;;;;4.70;2.10;;;17.50;99.90;;;;;;5033874;28;20132;-79
2021/08/01 01:52:12;;;;;;;7.68;2.50;;;17.50;99.90;;;;;;5033917;28;20054;-78
2021/08/01 01:54:40;;;;;;;5.07;2.30;;;17.60;99.90;;;;;;5034177;28;20053;-78
2021/08/01 01:57:08;;;;;;;5.72;2.30;;;17.60;99.90;;;;;;5034391;28;20137;-78
2021/08/01 01:59:35;;;;;;;7.20;2.30;;;17.60;99.90;;;;;;5034287;28;20045;-80
2021/08/01 02:02:03;;;;;;;5.18;2.05;;;17.70;99.90;;;;;;5034129;28;20056;-80
2021/08/01 02:04:30;;;;;;;4.13;2.20;;;17.70;99.90;;;;;;5033290;28;20462;-80
2021/08/01 02:06:57;;;;;;;6.70;2.40;;;17.70;99.90;;;;;;5034059;28;20042;-80
2021/08/01 02:09:35;;;;;;;6.45;2.55;;;17.70;99.90;;;;;;5033782;28;20072;-79
2021/08/01 02:12:09;;;;;;;5.20;2.40;;;17.70;99.90;;;;;;5014265;28;20061;-77
2021/08/01 02:14:47;;;;;;;4.22;2.20;;;17.70;99.90;;;;;;5014289;28;20060;-79
2021/08/01 02:17:21;;;;;;;6.20;2.35;;;17.70;99.90;;;;;;5014009;28;20137;-80
2021/08/01 02:19:50;;;;;;;4.65;2.47;;;17.70;99.90;;;;;;5014057;28;20514;-79
2021/08/01 02:22:18;;;;;;;4.32;2.40;;;17.70;99.90;;;;;;5013751;28;20121;-79
2021/08/01 02:24:50;;;;;;;5.22;2.40;;;17.70;99.90;;;;;;5014031;28;20084;-79
2021/08/01 02:27:19;;;;;;;4.18;2.47;;;17.70;99.90;;;;;;5013701;28;20089;-78
2021/08/01 02:29:47;;;;;;;4.63;2.20;;;17.70;99.90;;;;;;5013652;28;20480;-79
2021/08/01 02:32:15;;;;;;;5.20;2.47;;;17.70;99.90;;;;;;5013512;28;20141;-78
2021/08/01 02:34:42;;;;;;;4.00;2.10;;;17.70;99.90;;;;;;5013816;28;20046;-78
2021/08/01 02:37:09;;;;;;;4.72;2.28;;;17.70;99.90;;;;;;5013256;28;20081;-79
2021/08/01 02:39:37;;;;;;;4.07;2.17;;;17.70;99.90;;;;;;5013600;28;20050;-79
2021/08/01 02:42:09;;;;;;;6.10;2.50;;;17.60;99.90;;;;;;5013424;28;20046;-76
2021/08/01 02:44:37;;;;;;;4.93;2.35;;;17.60;99.90;;;;;;5013490;28;20049;-79
2021/08/01 02:47:08;;;;;;;3.88;2.20;;;17.60;99.90;;;;;;5013650;28;20057;-80
2021/08/01 02:49:41;;;;;;;5.50;2.40;;;17.60;99.90;;;;;;5013615;28;20050;-80
2021/08/01 02:52:12;;;;;;;4.40;2.13;;;17.60;99.90;;;;;;5013251;28;20403;-78
2021/08/01 02:54:41;;;;;;;4.50;2.40;;;17.50;99.90;;;;;;5013366;28;20136;-78
2021/08/01 02:57:12;;;;;;;5.57;2.33;;;17.50;99.90;;;;;;5013178;28;20069;-80
2021/08/01 02:59:42;;;;;;;5.38;2.33;;;17.50;99.90;;;;;;5013620;28;20046;-78
2021/08/01 03:02:11;;;;;;;4.55;2.50;;;17.40;99.90;;;;;;5013285;28;20061;-77
2021/08/01 03:04:40;;;;;;;5.07;2.33;;;17.40;99.90;;;;;;5024685;28;20049;-80
2021/08/01 03:07:07;;;;;;;5.30;2.60;;;17.40;99.90;;;;;;5031221;28;20454;-78
2021/08/01 03:09:34;;;;;;;5.43;2.58;;;17.40;99.90;;;;;;5028645;28;20060;-78
2021/08/01 03:12:11;;;;;;;6.85;2.97;;;17.40;99.90;;;;;;5011010;28;20422;-79
2021/08/01 03:14:38;;;;;;;5.82;2.75;;;17.30;99.90;;;;;;5010715;28;20446;-77
2021/08/01 03:17:06;;;;;;;4.28;2.53;;;17.30;99.90;;;;;;5011270;28;20099;-76
2021/08/01 03:19:35;;;;;;;5.70;2.60;;;17.20;99.90;;;;;;5011277;28;20074;-79
2021/08/01 03:22:02;;;;;;;4.88;2.67;;;17.10;99.90;;;;;;5010791;28;20137;-77
2021/08/01 03:24:29;;;;;;;5.25;2.42;;;17.10;99.90;;;;;;5010950;28;20054;-78
2021/08/01 03:26:57;;;;;;;5.47;2.50;;;17.10;99.90;;;;;;5017142;28;20399;-79
2021/08/01 03:29:25;;;;;;;5.55;2.67;;;17.10;99.90;;;;;;5016518;28;20546;-79
2021/08/01 03:31:53;;;;;;;4.70;2.10;;;17.00;99.90;;;;;;5010713;28;20411;-79
2021/08/01 03:34:20;;;;;;;5.90;2.28;;;17.00;99.90;;;;;;5017110;28;20215;-78
2021/08/01 03:36:48;;;;;;;4.95;2.10;;;17.00;99.90;;;;;;5022161;28;20045;-77
2021/08/01 03:39:15;;;;;;;4.68;2.17;;;16.90;99.90;;;;;;5012791;28;20057;-79
2021/08/01 03:41:42;;;;;;;4.18;2.30;;;16.90;99.90;;;;;;5011087;28;20050;-80
2021/08/01 03:44:09;;;;;;;5.00;1.90;;;16.90;99.90;;;;;;5010679;28;20611;-79
2021/08/01 03:46:38;;;;;;;4.25;1.83;;;16.90;99.90;;;;;;5010676;28;20414;-79
2021/08/01 03:49:05;;;;;;;4.32;1.88;;;16.90;99.90;;;;;;5025857;28;20048;-80
2021/08/01 03:51:32;;;;;;;4.20;2.00;;;16.90;99.90;;;;;;5036477;28;20411;-80
2021/08/01 03:53:59;;;;;;;5.95;2.00;;;16.90;99.90;;;;;;5030780;28;20069;-79
2021/08/01 03:56:26;;;;;;;4.00;2.15;;;16.90;99.90;;;;;;5030794;28;20146;-78
2021/08/01 03:58:53;;;;;;;4.60;2.05;;;16.90;99.90;;;;;;5032825;28;20582;-80
2021/08/01 04:01:20;;;;;;;3.95;1.80;;;16.90;99.90;;;;;;5034195;28;20057;-77
2021/08/01 04:03:49;;;;;;;5.30;2.10;;;16.90;99.90;;;;;;5035877;28;20080;-79
2021/08/01 04:06:16;;;;;;;3.85;1.98;;;16.90;99.90;;;;;;5036444;28;20046;-79
2021/08/01 04:08:43;;;;;;;4.32;2.03;;;16.90;99.90;;;;;;5044235;28;20128;-79
2021/08/01 04:11:10;;;;;;;4.75;2.00;;;16.90;99.90;;;;;;5038632;28;20109;-77
2021/08/01 04:13:37;;;;;;;5.53;2.05;;;16.90;99.90;;;;;;5020832;28;20077;-79
2021/08/01 04:16:04;;;;;;;4.72;2.45;;;16.90;99.90;;;;;;5016683;28;20042;-78
2021/08/01 04:18:31;;;;;;;4.60;2.10;;;16.90;99.90;;;;;;5015566;28;20438;-80
2021/08/01 04:21:00;;;;;;;4.55;2.10;;;16.90;99.90;;;;;;5016905;28;20046;-78
2021/08/01 04:23:27;;;;;;;4.43;2.13;;;16.80;99.90;;;;;;5016691;28;20507;-80
2021/08/01 04:25:54;;;;;;;4.32;1.90;;;16.80;99.90;;;;;;5016195;28;20049;-78
2021/08/01 04:28:21;;;;;;;4.13;2.10;;;16.80;99.90;;;;;;5016281;28;20064;-79
2021/08/01 04:30:48;;;;;;;4.80;2.00;;;16.70;99.90;;;;;;5015608;28;20046;-76
2021/08/01 04:33:15;;;;;;;4.80;2.50;;;16.80;99.90;;;;;;5016465;28;20580;-80
2021/08/01 04:35:42;;;;;;;4.82;2.30;;;16.80;99.90;;;;;;5015805;28;20046;-79
2021/08/01 04:38:12;;;;;;;4.90;2.10;;;16.80;99.90;;;;;;5016072;28;20137;-79
2021/08/01 04:40:39;;;;;;;4.70;2.45;;;16.80;99.90;;;;;;5015851;28;20081;-79
2021/08/01 04:43:06;;;;;;;5.60;2.67;;;16.70;99.90;;;;;;5016201;28;20046;-79
2021/08/01 04:45:33;;;;;;;4.50;2.22;;;16.70;99.90;;;;;;5015512;28;20551;-78
2021/08/01 04:48:00;;;;;;;4.63;2.38;;;16.70;99.90;;;;;;5016151;28;20077;-78
2021/08/01 04:50:27;;;;;;;3.35;1.90;;;16.70;99.90;;;;;;5015612;28;20045;-80
2021/08/01 04:52:54;;;;;;;4.40;2.10;;;16.60;99.90;;;;;;5015373;28;20050;-80
2021/08/01 04:55:23;;;;;;;4.65;2.30;;;16.60;99.90;;;;;;5015764;28;20045;-78
2021/08/01 04:57:51;;;;;;;3.58;1.80;;;16.60;99.90;;;;;;5016330;28;20092;-77
2021/08/01 05:00:18;;;;;;;4.50;2.17;;;16.70;99.90;;;;;;5015231;28;20046;-78
2021/08/01 05:02:45;;;;;;;4.60;2.20;;;16.70;99.90;;;;;;5015494;28;20092;-80
2021/08/01 05:05:13;;;;;;;5.25;2.53;;;16.70;99.90;;;;;;5018349;28;20048;-80
2021/08/01 05:07:40;;;;;;;5.32;2.20;;;16.60;99.90;;;;;;5035112;28;20054;-81
2021/08/01 05:10:08;;;;;;;4.03;2.08;;;16.60;99.90;;;;;;5029429;28;20052;-80
2021/08/01 05:12:37;;;;;;;3.72;2.05;;;16.50;99.90;;;;;;5034525;28;20101;-80
2021/08/01 05:15:06;;;;;;;4.28;1.70;;;16.50;99.90;;;;;;5032760;28;20048;-78
2021/08/01 05:17:33;;;;;;;3.53;1.90;;;16.50;99.90;;;;;;5023202;28;20045;-79
2021/08/01 05:20:00;;;;;;;4.47;1.90;;;16.50;99.90;;;;;;5035236;28;20049;-77
2021/08/01 05:22:27;;;;;;;4.70;2.03;;;16.60;99.90;;;;;;5034311;28;20132;-79
2021/08/01 05:24:54;;;;;;;4.53;2.05;;;16.60;99.90;;;;;;5034495;28;20055;-80
2021/08/01 05:27:21;;;;;;;4.65;1.70;;;16.60;99.90;;;;;;5034244;28;20426;-77
2021/08/01 05:29:49;;;;;;;3.60;1.95;;;16.70;99.90;;;;;;5034037;28;20128;-77
2021/08/01 05:32:16;;;;;;;3.55;1.75;;;16.70;99.90;;;;;;5034364;28;20136;-78
2021/08/01 05:34:43;;;;;;;4.10;2.25;;;16.70;99.90;;;;;;5033986;28;20128;-78
2021/08/01 05:37:10;;;;;;;5.43;2.10;;;16.70;99.90;;;;;;5034693;28;20128;-78
2021/08/01 05:39:38;;;;;;;5.05;2.13;;;16.70;99.90;;;;;;5035785;28;20486;-79
2021/08/01 05:42:05;;;;;;;4.97;1.80;;;16.70;99.90;;;;;;5025710;28;20052;-77
2021/08/01 05:44:33;;;;;;;4.20;1.98;;;16.70;99.90;;;;;;5014488;28;20129;-79
2021/08/01 05:47:06;;;;;;;4.00;1.90;;;16.70;99.90;;;;;;5024507;28;20045;-77
2021/08/01 05:49:34;;;;;;;3.42;1.73;;;16.70;99.90;;;;;;5034273;28;20052;-77
2021/08/01 05:52:01;;;;;;;4.38;1.90;;;16.70;99.90;;;;;;5028311;28;20049;-77
2021/08/01 05:54:28;;;;;;;3.38;1.73;;;16.70;99.90;;;;;;5045787;28;20065;-79
2021/08/01 05:56:55;;;;;;;4.55;1.80;;;16.70;99.90;;;;;;5028915;28;20221;-78
2021/08/01 05:59:22;;;;;;;5.05;1.85;;;16.80;99.90;;;;;;5034061;28;20050;-77
2021/08/01 06:01:49;;;;;;;4.18;1.95;;;16.80;99.90;;;;;;5033879;28;20497;-78
2021/08/01 06:04:18;;;;;;;3.22;1.70;;;16.90;99.90;;;;;;5033956;28;20049;-77
2021/08/01 06:06:45;;;;;;;4.45;1.92;;;16.90;99.90;;;;;;5033720;28;20148;-78
2021/08/01 06:09:12;;;;;;;4.10;1.90;;;17.00;99.90;;;;;;5032847;28;20136;-78
2021/08/01 06:11:39;;;;;;;4.30;2.10;;;17.00;99.90;;;;;;5033376;28;20631;-76
2021/08/01 06:14:06;;;;;;;6.70;2.00;;;16.90;99.90;;;;;;5038713;28;20105;-76
2021/08/01 06:16:34;;;;;;;5.45;2.13;;;16.90;99.90;;;;;;5033445;28;20132;-79
2021/08/01 06:19:01;;;;;;;5.25;2.05;;;16.90;99.90;;;;;;5020000;28;20072;-79
2021/08/01 06:21:30;;;;;;;3.78;2.00;;;16.90;99.90;;;;;;5021636;28;20041;-77
2021/08/01 06:23:57;;;;;;;4.97;2.10;;;16.90;99.90;;;;;;5034713;28;20050;-78
2021/08/01 06:26:24;;;;;;;4.63;1.90;;;16.90;99.90;;;;;;5033509;28;20124;-80
2021/08/01 06:28:51;;;;;;;4.80;1.95;;;16.90;99.90;;;;;;5033557;28;20137;-78
2021/08/01 06:31:18;;;;;;;3.67;1.90;;;17.00;99.90;;;;;;5027729;28;20125;-81
2021/08/01 06:33:46;;;;;;;3.85;1.85;;;17.00;99.90;;;;;;5013745;28;20409;-80
2021/08/01 06:36:15;;;;;;;3.92;1.80;;;17.10;99.90;;;;;;5017723;28;20128;-77
2021/08/01 06:38:47;;;;;;;4.40;1.90;;;17.20;99.90;;;;;;5026025;28;20398;-79
2021/08/01 06:41:14;;;;;;;3.30;2.10;;;17.30;99.90;;;;;;5033037;28;20558;-80
2021/08/01 06:43:41;;;;;;;5.20;2.08;;;17.40;99.90;;;;;;5022704;28;20117;-77
2021/08/01 06:46:08;;;;;;;3.90;2.13;;;17.40;99.90;;;;;;5032074;28;20092;-80
2021/08/01 06:48:36;;;;;;;4.07;2.20;;;17.40;99.90;;;;;;5026584;28;20071;-80
2021/08/01 06:51:03;;;;;;;3.78;1.90;;;17.50;99.90;;;;;;5014943;28;20502;-80
2021/08/01 06:53:30;;;;;;;3.70;1.80;;;17.50;99.90;;;;;;5020184;28;20045;-78
2021/08/01 06:55:58;;;;;;;4.38;1.98;;;17.60;99.90;;;;;;5039829;28;20064;-80
2021/08/01 06:58:25;;;;;;;4.60;2.10;;;17.70;99.90;;;;;;5036563;28;20121;-80
2021/08/01 07:00:54;;;;;;;3.78;1.88;;;17.70;99.90;;;;;;5030678;28;20137;-77
2021/08/01 07:03:21;;;;;;;3.78;1.95;;;17.70;99.90;;;;;;5022459;28;20129;-79
2021/08/01 07:05:49;;;;;;;4.03;2.10;;;17.80;99.90;;;;;;5028528;28;20049;-80
2021/08/01 07:08:15;;;;;;;7.10;2.45;;;17.90;99.90;;;;;;5032330;28;20045;-80
2021/08/01 07:10:42;;;;;;;3.72;2.00;;;17.90;99.90;;;;;;5032943;28;20059;-79
2021/08/01 07:13:11;;;;;;;4.75;2.30;;;17.80;99.90;;;;;;5032763;28;20499;-79
2021/08/01 07:15:39;;;;;;;7.05;2.60;;;17.80;99.90;;;;;;5033118;28;20053;-80
2021/08/01 07:18:08;;;;;;;4.22;2.08;;;17.80;99.90;;;;;;5032867;28;20049;-79
2021/08/01 07:20:35;;;;;;;4.47;2.40;;;17.70;99.90;;;;;;5032681;28;20081;-80
2021/08/01 07:23:06;;;;;;;4.28;2.17;;;17.70;99.90;;;;;;5032800;28;20088;-80
2021/08/01 07:25:33;;;;;;;4.97;2.65;;;17.60;99.90;;;;;;5033113;28;20057;-79
2021/08/01 07:28:00;;;;;;;4.45;2.38;;;17.60;99.90;;;;;;5032719;28;20119;-79
2021/08/01 07:30:28;;;;;;;6.30;2.70;;;17.60;99.90;;;;;;5033034;28;20124;-80
2021/08/01 07:32:55;;;;;;;5.05;2.50;;;17.60;99.90;;;;;;5031449;28;20187;-78
2021/08/01 07:35:22;;;;;;;5.30;2.58;;;17.60;99.90;;;;;;5035044;28;20045;-79
2021/08/01 07:37:50;;;;;;;4.47;2.30;;;17.60;99.90;;;;;;5036048;28;20204;-78
2021/08/01 07:40:17;;;;;;;5.80;2.40;;;17.60;99.90;;;;;;5035713;28;20060;-78
2021/08/01 07:42:44;;;;;;;4.63;2.25;;;17.60;99.90;;;;;;5035352;28;20132;-79
2021/08/01 07:45:22;;;;;;;5.15;2.63;;;17.60;99.90;;;;;;5036528;28;20083;-79
2021/08/01 07:47:50;;;;;;;5.60;2.35;;;17.50;99.90;;;;;;5038011;28;20058;-76
2021/08/01 07:50:18;;;;;;;4.50;2.40;;;17.50;99.90;;;;;;5025385;28;20124;-76
2021/08/01 07:52:45;;;;;;;5.82;2.90;;;17.50;99.90;;;;;;5036073;28;20449;-77
2021/08/01 07:55:15;;;;;;;6.38;2.80;;;17.60;99.90;;;;;;5034579;28;20563;-79
2021/08/01 07:57:43;;;;;;;4.50;2.38;;;17.60;99.90;;;;;;5036052;28;20058;-80
2021/08/01 08:00:13;;;;;;;7.47;2.67;;;17.60;99.90;;;;;;5036077;28;20056;-79
2021/08/01 08:02:40;;;;;;;6.05;2.90;;;17.60;99.90;;;;;;5035923;28;20052;-81
2021/08/01 08:05:11;;;;;;;4.07;2.47;;;17.70;99.90;;;;;;5036300;28;20128;-80
2021/08/01 08:07:38;;;;;;;4.88;2.45;;;17.70;99.90;;;;;;5040989;28;20068;-81
2021/08/01 08:10:07;;;;;;;5.40;2.90;;;17.70;99.90;;;;;;5045750;28;20084;-80
2021/08/01 08:12:34;;;;;;;5.07;2.47;;;17.70;99.90;;;;;;5043713;28;20085;-79
2021/08/01 08:15:02;;;;;;;5.00;2.35;;;17.80;99.90;;;;;;5036218;28;20049;-81
2021/08/01 08:17:33;;;;;;;4.20;2.38;;;17.80;99.90;;;;;;5035384;28;20136;-80
2021/08/01 08:20:01;;;;;;;5.53;2.67;;;17.80;99.90;;;;;;5035153;28;20077;-78
2021/08/01 08:22:30;;;;;;;4.55;2.50;;;17.90;99.90;;;;;;5035455;28;20479;-79
2021/08/01 08:24:57;;;;;;;6.90;2.92;;;17.90;99.90;;;;;;5045176;28;20073;-79
2021/08/01 08:27:24;;;;;;;4.90;2.60;;;18.00;99.90;;;;;;5040684;28;20132;-80
2021/08/01 08:29:51;;;;;;;6.88;2.78;;;18.00;99.90;;;;;;5042710;28;20463;-81
2021/08/01 08:32:18;;;;;;;4.57;2.50;;;18.00;99.90;;;;;;5038048;28;20105;-81
2021/08/01 08:34:45;;;;;;;6.20;2.72;;;18.00;99.90;;;;;;5019726;28;20136;-80
2021/08/01 08:37:12;;;;;;;5.65;2.70;;;17.90;99.90;;;;;;5026905;28;20125;-80
2021/08/01 08:39:41;;;;;;;4.53;2.60;;;17.80;99.90;;;;;;5034645;28;20145;-79
2021/08/01 08:42:09;;;;;;;5.78;3.03;;;17.80;99.90;;;;;;5027250;28;20046;-77
2021/08/01 08:44:37;;;;;;;6.00;3.20;;;17.70;99.90;;;;;;5017157;28;20455;-81
2021/08/01 08:47:05;;;;;;;6.07;2.95;;;17.60;99.90;;;;;;5030994;28;20054;-78
2021/08/01 08:49:37;;;;;;;5.25;3.03;;;17.50;99.90;;;;;;5031345;28;20083;-80
2021/08/01 08:52:08;;;;;;;5.78;3.35;;;17.50;99.90;;;;;;5034788;28;20054;-77
2021/08/01 08:54:44;;;;;;;4.63;2.70;;;17.50;99.90;;;;;;5034923;28;20124;-77
2021/08/01 08:57:20;;;;;;;5.40;2.78;;;17.50;99.90;;;;;;5034539;28;20124;-75
2021/08/01 08:59:48;;;;;;;4.90;2.90;;;17.50;99.90;;;;;;5034765;28;20558;-81
2021/08/01 09:02:15;;;;;;;4.22;2.58;;;17.50;99.90;;;;;;5019124;28;20133;-79
2021/08/01 09:04:43;;;;;;;5.95;3.30;;;17.50;99.90;;;;;;5026724;28;20073;-76
2021/08/01 09:07:10;;;;;;;4.93;2.80;;;17.50;99.90;;;;;;5020153;28;20077;-79
2021/08/01 09:09:37;;;;;;;7.05;3.42;;;17.60;99.90;;;;;;5015021;28;20134;-81
2021/08/01 09:12:07;;;;;;;7.35;3.20;;;17.60;99.90;;;;;;5014617;28;20056;-80
2021/08/01 09:14:34;;;;;;;4.88;2.80;;;17.60;99.90;;;;;;4998352;28;20488;-80
2021/08/01 09:17:01;;;;;;;7.50;3.20;;;17.60;99.90;;;;;;5015770;28;20125;-77
2021/08/01 09:19:31;;;;;;;7.85;3.55;;;17.60;99.90;;;;;;5016833;28;20128;-79
2021/08/01 09:22:18;;;;;;;7.35;3.42;;;17.60;99.90;;;;;;5017314;28;20133;-80
2021/08/01 09:24:47;;;;;;;6.25;3.00;;;17.50;99.90;;;;;;5014875;28;20050;-79
2021/08/01 09:27:33;;;;;;;4.90;3.25;;;17.50;99.90;;;;;;5034375;28;20057;-79
2021/08/01 09:30:02;;;;;;;6.65;4.32;;;17.50;99.90;;;;;;5014641;28;20057;-80
2021/08/01 09:32:32;;;;;;;6.97;3.90;;;17.50;99.90;;;;;;5014331;28;20045;-79
2021/08/01 09:34:59;;;;;;;6.57;3.58;;;17.40;99.90;;;;;;5014411;28;20052;-79
2021/08/01 09:37:34;;;;;;;6.57;3.50;;;17.50;99.90;;;;;;5014273;28;20132;-80
2021/08/01 09:40:11;;;;;;;6.25;3.10;;;17.40;99.90;;;;;;5023204;28;20056;-78
2021/08/01 09:42:46;;;;;;;6.20;3.10;;;17.40;99.90;;;;;;5034122;28;20053;-80
2021/08/01 09:45:17;;;;;;;5.43;3.10;;;17.50;99.90;;;;;;5033495;28;20042;-78
2021/08/01 09:47:44;;;;;;;5.78;3.88;;;17.50;99.90;;;;;;5034196;28;20057;-79
2021/08/01 09:50:13;;;;;;;6.47;3.58;;;17.50;99.90;;;;;;5034082;28;20092;-77
2021/08/01 09:52:40;;;;;;;6.55;3.40;;;17.50;99.90;;;;;;5033928;28;20128;-80
2021/08/01 09:55:18;;;;;;;5.25;3.20;;;17.50;99.90;;;;;;5033649;28;20045;-80
2021/08/01 09:57:57;;;;;;;5.53;3.50;;;17.60;99.90;;;;;;5033543;28;20182;-79
2021/08/01 10:00:25;;;;;;;5.53;3.33;;;17.70;99.90;;;;;;5041305;28;20505;-76
2021/08/01 10:02:54;;;;;;;7.50;3.28;;;17.70;99.90;;;;;;5052716;28;20139;-79
2021/08/01 10:05:23;;;;;;;5.47;3.60;;;17.80;99.90;;;;;;5035068;28;20749;-77
2021/08/01 10:07:52;;;;;;;6.90;3.35;;;17.90;99.90;;;;;;5030989;28;20134;-79
2021/08/01 10:10:21;;;;;;;4.97;3.13;;;17.90;99.90;;;;;;5030859;28;20041;-78
2021/08/01 10:12:53;;;;;;;6.63;3.15;;;18.10;99.90;;;;;;5031006;28;20139;-80
2021/08/01 10:15:22;;;;;;;6.93;3.45;;;18.10;99.90;;;;;;5031134;28;20060;-75
2021/08/01 10:17:49;;;;;;;5.13;2.67;;;18.10;99.90;;;;;;5030559;28;20089;-76
2021/08/01 10:20:16;;;;;;;4.63;2.80;;;18.10;99.90;;;;;;5031031;28;20053;-81
2021/08/01 10:22:45;;;;;;;5.50;2.85;;;18.10;99.90;;;;;;5030667;28;20050;-78
2021/08/01 10:25:18;;;;;;;6.40;2.90;;;18.10;99.90;;;;;;5031104;28;20103;-79
2021/08/01 10:27:50;;;;;;;5.38;2.72;;;18.10;99.90;;;;;;5033754;28;20146;-78
2021/08/01 10:30:21;;;;;;;4.90;2.97;;;18.10;99.90;;;;;;5039389;28;20140;-81
2021/08/01 10:32:53;;;;;;;6.75;2.65;;;18.20;99.90;;;;;;5030517;28;20408;-79
2021/08/01 10:35:23;;;;;;;5.60;3.30;;;18.30;99.90;;;;;;5030486;28;20052;-79
2021/08/01 10:37:56;;;;;;;4.88;3.00;;;18.30;99.90;;;;;;5030799;28;20460;-81
2021/08/01 10:40:27;;;;;;;6.03;3.00;;;18.30;99.90;;;;;;5030324;28;20049;-79
2021/08/01 10:42:58;;;;;;;4.88;2.58;;;18.30;99.90;;;;;;5029973;28;20137;-78
2021/08/01 10:45:27;;;;;;;5.03;2.50;;;18.30;99.90;;;;;;5030372;28;20144;-79
2021/08/01 10:47:55;;;;;;;3.97;2.40;;;18.30;99.90;;;;;;5030089;28;20061;-79
2021/08/01 10:50:26;;;;;;;5.35;2.50;;;18.30;99.90;;;;;;5030287;28;20565;-80
2021/08/01 10:53:24;;;;;;;3.85;2.67;;;18.20;99.90;;;;;;5030050;28;20056;-81
2021/08/01 10:55:53;;;;;;;4.97;2.92;;;18.30;99.90;;;;;;5029938;28;20077;-79
2021/08/01 10:58:20;;;;;;;4.47;2.85;;;18.30;99.90;;;;;;5029930;28;20045;-79
2021/08/01 11:01:03;;;;;;;5.38;3.20;;;18.40;99.90;;;;;;5030328;28;20128;-79
2021/08/01 11:03:31;;;;;;;4.65;2.53;;;18.50;99.90;;;;;;5030919;28;20063;-80
2021/08/01 11:06:00;;;;;;;4.78;2.97;;;18.60;99.90;;;;;;5030376;28;20053;-80
2021/08/01 11:08:27;;;;;;;5.75;3.00;;;18.60;99.90;;;;;;5028901;28;20056;-78
2021/08/01 11:11:15;;;;;;;5.90;2.58;;;18.70;99.90;;;;;;5029854;28;20143;-79
2021/08/01 11:13:45;;;;;;;4.60;2.50;;;18.80;99.90;;;;;;5032378;28;20500;-77
2021/08/01 11:16:16;;;;;;;4.70;2.60;;;18.80;99.90;;;;;;5017238;28;20065;-76
2021/08/01 11:18:45;;;;;;;3.97;2.40;;;18.90;99.90;;;;;;5029089;28;20128;-80
2021/08/01 11:21:14;;;;;;;3.92;2.40;;;18.90;99.90;;;;;;5033380;28;20140;-76
2021/08/01 11:24:17;;;;;;;3.95;2.28;;;19.10;99.90;;;;;;5035892;28;20073;-79
2021/08/01 11:27:20;;;;;;;4.25;2.33;;;19.20;99.90;;;;;;5033716;28;20063;-79
2021/08/01 11:30:05;;;;;;;7.38;4.05;;;19.30;99.90;;;;;;4972750;28;20043;-79
2021/08/01 11:32:53;;;;;;;14.45;8.05;;;19.40;99.90;;;;;;4957292;28;20050;-79
2021/08/01 11:35:22;;;;;;;11.70;5.05;;;19.60;99.90;;;;;;5014363;28;20076;-79
2021/08/01 11:38:08;;;;;;;5.25;2.50;;;19.70;99.90;;;;;;5029787;28;20049;-80
2021/08/01 11:40:48;;;;;;;5.25;2.50;;;19.70;99.90;;;;;;5031352;28;20041;-79
2021/08/01 11:43:15;;;;;;;3.70;2.05;;;19.70;99.90;;;;;;5023930;28;20073;-77
2021/08/01 11:46:00;;;;;;;4.88;2.55;;;19.70;99.90;;;;;;5031239;28;20081;-77
2021/08/01 11:48:29;;;;;;;4.32;2.88;;;19.90;99.90;;;;;;5039178;28;20042;-79
2021/08/01 11:50:58;;;;;;;5.47;2.58;;;20.10;99.90;;;;;;5042913;28;20132;-76
2021/08/01 11:53:26;;;;;;;3.60;2.05;;;20.20;99.70;;;;;;5041137;28;20053;-77
2021/08/01 11:55:59;;;;;;;3.47;2.25;;;20.30;99.60;;;;;;5038640;28;20128;-81
2021/08/01 11:58:29;;;;;;;4.53;2.50;;;20.40;99.40;;;;;;5038563;28;20048;-80
2021/08/01 12:00:58;;;;;;;4.40;2.28;;;20.50;98.50;;;;;;5031486;28;20081;-78
2021/08/01 12:03:28;;;;;;;4.78;2.30;;;20.50;98.00;;;;;;5031294;28;20140;-81
2021/08/01 12:05:55;;;;;;;4.30;2.60;;;20.50;98.40;;;;;;5022204;28;20050;-79
2021/08/01 12:08:30;;;;;;;5.15;2.30;;;20.50;98.00;;;;;;5015838;28;20117;-81
2021/08/01 12:11:13;;;;;;;5.60;2.63;;;20.50;97.90;;;;;;5017164;28;20081;-78
2021/08/01 12:13:40;;;;;;;4.65;2.45;;;20.50;97.60;;;;;;5018053;28;20077;-78
2021/08/01 12:16:18;;;;;;;5.10;2.60;;;20.50;97.50;;;;;;5033254;28;20045;-79
2021/08/01 12:18:47;;;;;;;6.00;2.63;;;20.60;97.50;;;;;;5032557;28;20049;-78
2021/08/01 12:21:34;;;;;;;4.65;2.75;;;20.60;97.40;;;;;;5033109;28;20127;-77
2021/08/01 12:24:01;;;;;;;4.80;2.55;;;20.80;97.40;;;;;;5033424;28;20095;-79
2021/08/01 12:26:39;;;;;;;5.63;2.80;;;20.90;97.20;;;;;;5031163;28;20048;-80
2021/08/01 12:29:06;;;;;;;5.75;2.70;;;20.90;96.70;;;;;;5033100;28;20132;-78
2021/08/01 12:31:33;;;;;;;4.40;2.55;;;21.00;96.20;;;;;;5032976;28;20128;-79
2021/08/01 12:34:02;;;;;;;4.60;2.60;;;21.00;96.60;;;;;;5033125;28;20057;-79
2021/08/01 12:36:29;;;;;;;4.25;2.40;;;21.00;95.20;;;;;;5033027;28;20140;-80
2021/08/01 12:38:57;;;;;;;5.03;2.42;;;21.00;95.50;;;;;;5034111;28;20056;-79
2021/08/01 12:41:24;;;;;;;4.32;2.17;;;21.00;95.80;;;;;;5036135;28;20132;-80
2021/08/01 12:43:51;;;;;;;5.72;2.15;;;21.10;96.10;;;;;;5037295;28;20133;-79
2021/08/01 12:46:19;;;;;;;5.45;2.30;;;21.20;95.80;;;;;;5037577;28;20096;-80
2021/08/01 12:48:48;;;;;;;4.15;2.30;;;21.30;95.20;;;;;;5037632;28;20085;-80
2021/08/01 12:51:17;;;;;;;4.90;2.55;;;21.30;93.90;;;;;;5032856;28;20454;-78
2021/08/01 12:53:46;;;;;;;4.13;2.20;;;21.30;93.40;;;;;;5035653;28;20083;-79
2021/08/01 12:56:16;;;;;;;4.38;2.28;;;21.40;94.00;;;;;;5043847;28;20081;-79
2021/08/01 12:58:44;;;;;;;4.45;2.50;;;21.60;93.10;;;;;;5046365;28;20049;-80